createdAt,value
2019-01-02T00:00:22.507Z,102939.00
2019-01-02T00:02:52.052Z,102944.00
2019-01-02T00:05:21.515Z,102941.00
2019-01-02T00:07:51.037Z,102939.00
2019-01-02T00:10:20.768Z,102936.00
2019-01-02T00:12:50.233Z,102948.00
2019-01-02T00:15:20.087Z,102951.00
2019-01-02T00:17:49.555Z,102951.00
2019-01-02T00:20:19.377Z,102951.00
2019-01-02T00:22:48.813Z,102960.00
2019-01-02T00:25:18.340Z,102956.00
2019-01-02T00:27:47.797Z,102970.00
2019-01-02T00:30:17.264Z,102966.00
2019-01-02T00:32:47.212Z,102968.00
2019-01-02T00:35:16.745Z,102963.00
2019-01-02T00:37:46.342Z,102965.00
2019-01-02T00:40:15.869Z,102959.00
2019-01-02T00:42:45.634Z,102958.00
2019-01-02T00:45:15.109Z,102958.00
2019-01-02T00:47:45.068Z,102964.00
2019-01-02T00:50:14.493Z,102971.00
2019-01-02T00:52:43.956Z,102969.00
2019-01-02T00:55:13.448Z,102974.00
2019-01-02T00:57:42.891Z,102984.00
2019-01-02T01:00:17.338Z,102981.00
2019-01-02T01:02:46.816Z,102991.00
2019-01-02T01:05:16.279Z,102994.00
2019-01-02T01:07:46.068Z,102993.00
2019-01-02T01:10:18.007Z,103000.00
2019-01-02T01:12:48.000Z,103006.00
2019-01-02T01:15:17.455Z,103004.00
2019-01-02T01:17:47.022Z,103004.00
2019-01-02T01:20:18.175Z,103006.00
2019-01-02T01:22:47.619Z,102998.00
2019-01-02T01:25:17.248Z,103006.00
2019-01-02T01:27:46.764Z,103005.00
2019-01-02T01:30:16.597Z,103017.00
2019-01-02T01:32:46.088Z,103010.00
2019-01-02T01:35:15.619Z,103018.00
2019-01-02T01:37:47.399Z,103020.00
2019-01-02T01:40:16.919Z,103005.00
2019-01-02T01:42:46.525Z,103010.00
2019-01-02T01:45:16.460Z,103013.00
2019-01-02T01:47:45.929Z,103023.00
2019-01-02T01:50:15.847Z,103032.00
2019-01-02T01:52:45.341Z,103020.00
2019-01-02T01:55:14.870Z,103015.00
2019-01-02T01:57:44.687Z,103022.00
2019-01-02T02:00:16.961Z,103016.00
2019-01-02T02:02:46.432Z,103022.00
2019-01-02T02:05:15.917Z,103029.00
2019-01-02T02:07:45.351Z,103025.00
2019-01-02T02:10:16.822Z,103031.00
2019-01-02T02:12:46.265Z,103019.00
2019-01-02T02:15:15.849Z,103025.00
2019-01-02T02:17:45.677Z,103025.00
2019-01-02T02:20:15.296Z,103033.00
2019-01-02T02:22:44.760Z,103031.00
2019-01-02T02:25:18.565Z,103025.00
2019-01-02T02:27:48.149Z,103030.00
2019-01-02T02:30:18.017Z,103030.00
2019-01-02T02:32:47.732Z,103029.00
2019-01-02T02:35:17.657Z,103030.00
2019-01-02T02:37:47.111Z,103036.00
2019-01-02T02:40:16.825Z,103026.00
2019-01-02T02:42:46.276Z,103022.00
2019-01-02T02:45:16.191Z,103017.00
2019-01-02T02:47:46.114Z,103018.00
2019-01-02T02:50:16.462Z,103014.00
2019-01-02T02:52:46.346Z,103018.00
2019-01-02T02:55:19.517Z,103015.00
2019-01-02T02:57:49.005Z,103015.00
2019-01-02T03:00:18.611Z,103024.00
2019-01-02T03:02:48.143Z,103023.00
2019-01-02T03:05:18.010Z,103025.00
2019-01-02T03:07:47.754Z,103034.00
2019-01-02T03:10:17.842Z,103036.00
2019-01-02T03:12:47.782Z,103030.00
2019-01-02T03:15:17.655Z,103026.00
2019-01-02T03:17:47.136Z,103025.00
2019-01-02T03:20:17.170Z,103023.00
2019-01-02T03:22:46.694Z,103024.00
2019-01-02T03:25:16.620Z,103033.00
2019-01-02T03:27:46.546Z,103036.00
2019-01-02T03:30:18.286Z,103043.00
2019-01-02T03:32:48.097Z,103034.00
2019-01-02T03:35:18.250Z,103042.00
2019-01-02T03:37:47.708Z,103028.00
2019-01-02T03:40:17.233Z,103037.00
2019-01-02T03:42:46.712Z,103040.00
2019-01-02T03:45:18.901Z,103039.00
2019-01-02T03:47:48.500Z,103043.00
2019-01-02T03:50:19.959Z,103036.00
2019-01-02T03:52:49.581Z,103046.00
2019-01-02T03:55:19.070Z,103049.00
2019-01-02T03:57:48.593Z,103045.00
2019-01-02T04:00:20.491Z,103044.00
2019-01-02T04:02:50.006Z,103040.00
2019-01-02T04:05:23.060Z,103037.00
2019-01-02T04:08:00.267Z,103030.00
2019-01-02T04:10:29.786Z,103035.00
2019-01-02T04:12:59.264Z,103036.00
2019-01-02T04:15:29.257Z,103031.00
2019-01-02T04:17:58.708Z,103040.00
2019-01-02T04:20:28.162Z,103036.00
2019-01-02T04:22:57.688Z,103038.00
2019-01-02T04:25:27.175Z,103034.00
2019-01-02T04:27:56.654Z,103026.00
2019-01-02T04:30:26.186Z,103025.00
2019-01-02T04:32:55.673Z,103034.00
2019-01-02T04:35:25.127Z,103040.00
2019-01-02T04:37:54.555Z,103048.00
2019-01-02T04:40:24.093Z,103056.00
2019-01-02T04:42:53.514Z,103058.00
2019-01-02T04:45:23.018Z,103046.00
2019-01-02T04:47:52.487Z,103051.00
2019-01-02T04:50:21.920Z,103038.00
2019-01-02T04:52:51.397Z,103044.00
2019-01-02T04:55:20.883Z,103050.00
2019-01-02T04:57:50.366Z,103035.00
2019-01-02T05:00:19.880Z,103047.00
2019-01-02T05:02:49.327Z,103058.00
2019-01-02T05:05:18.859Z,103057.00
2019-01-02T05:07:48.302Z,103061.00
2019-01-02T05:10:17.818Z,103057.00
2019-01-02T05:12:47.389Z,103058.00
2019-01-02T05:15:16.911Z,103071.00
2019-01-02T05:17:46.384Z,103060.00
2019-01-02T05:20:16.088Z,103054.00
2019-01-02T05:22:45.631Z,103061.00
2019-01-02T05:25:15.151Z,103068.00
2019-01-02T05:27:44.656Z,103070.00
2019-01-02T05:30:17.039Z,103074.00
2019-01-02T05:32:46.526Z,103075.00
2019-01-02T05:35:15.989Z,103075.00
2019-01-02T05:37:45.520Z,103081.00
2019-01-02T05:40:18.070Z,103088.00
2019-01-02T05:42:47.537Z,103079.00
2019-01-02T05:45:17.003Z,103080.00
2019-01-02T05:47:46.443Z,103086.00
2019-01-02T05:50:15.897Z,103093.00
2019-01-02T05:52:45.372Z,103091.00
2019-01-02T05:55:14.831Z,103092.00
2019-01-02T05:57:44.292Z,103083.00
2019-01-02T06:00:15.049Z,103096.00
2019-01-02T06:02:44.575Z,103089.00
2019-01-02T06:05:14.047Z,103101.00
2019-01-02T06:07:43.527Z,103099.00
2019-01-02T06:10:13.945Z,103104.00
2019-01-02T06:12:43.392Z,103099.00
2019-01-02T06:15:14.426Z,103094.00
2019-01-02T06:17:43.907Z,103099.00
2019-01-02T06:20:15.453Z,103106.00
2019-01-02T06:22:45.036Z,103107.00
2019-01-02T06:25:14.564Z,103104.00
2019-01-02T06:27:44.011Z,103117.00
2019-01-02T06:30:13.721Z,103128.00
2019-01-02T06:32:43.278Z,103131.00
2019-01-02T06:35:12.739Z,103124.00
2019-01-02T06:37:42.241Z,103122.00
2019-01-02T06:40:12.329Z,103125.00
2019-01-02T06:42:41.858Z,103128.00
2019-01-02T06:45:13.017Z,103127.00
2019-01-02T06:47:42.555Z,103121.00
2019-01-02T06:50:21.571Z,103127.00
2019-01-02T06:52:51.026Z,103128.00
2019-01-02T06:55:20.618Z,103125.00
2019-01-02T06:57:50.148Z,103140.00
2019-01-02T07:00:24.284Z,103143.00
2019-01-02T07:02:53.731Z,103146.00
2019-01-02T07:05:23.191Z,103158.00
2019-01-02T07:07:52.626Z,103158.00
2019-01-02T07:10:22.094Z,103160.00
2019-01-02T07:12:51.558Z,103156.00
2019-01-02T07:15:21.071Z,103152.00
2019-01-02T07:17:50.520Z,103159.00
2019-01-02T07:20:20.000Z,103160.00
2019-01-02T07:22:49.490Z,103172.00
2019-01-02T07:25:18.972Z,103177.00
2019-01-02T07:27:48.424Z,103178.00
2019-01-02T07:30:21.317Z,103183.00
2019-01-02T07:32:50.903Z,103187.00
2019-01-02T07:36:05.853Z,103195.00
2019-01-02T07:38:51.436Z,103210.00
2019-01-02T07:41:51.222Z,103213.00
2019-01-02T07:44:49.199Z,103208.00
2019-01-02T07:47:50.226Z,103214.00
2019-01-02T07:50:43.705Z,103214.00
2019-01-02T07:53:35.338Z,103208.00
2019-01-02T07:56:40.628Z,103217.00
2019-01-02T07:59:25.836Z,103215.00
2019-01-02T08:02:21.625Z,103216.00
2019-01-02T08:08:14.150Z,103228.00
2019-01-02T08:11:13.441Z,103237.00
2019-01-02T08:14:08.251Z,103226.00
2019-01-02T08:17:03.021Z,103241.00
2019-01-02T08:20:16.467Z,103252.00
2019-01-02T08:23:04.975Z,103242.00
2019-01-02T08:26:02.577Z,103244.00
2019-01-02T08:29:03.626Z,103256.00
2019-01-02T08:31:55.025Z,103254.00
2019-01-02T08:35:01.975Z,103250.00
2019-01-02T08:37:44.435Z,103261.00
2019-01-02T08:40:27.584Z,103257.00
2019-01-02T08:43:16.583Z,103252.00
2019-01-02T08:49:15.385Z,103245.00
2019-01-02T08:52:31.466Z,103251.00
2019-01-02T08:55:33.750Z,103261.00
2019-01-02T08:58:27.077Z,103266.00
2019-01-02T09:01:28.146Z,103268.00
2019-01-02T09:04:27.416Z,103265.00
2019-01-02T09:07:25.275Z,103250.00
2019-01-02T09:10:33.691Z,103236.00
2019-01-02T09:13:30.467Z,103246.00
2019-01-02T09:16:19.109Z,103259.00
2019-01-02T09:19:15.538Z,103266.00
2019-01-02T09:22:35.688Z,103267.00
2019-01-02T09:25:27.879Z,103267.00
2019-01-02T09:28:27.583Z,103257.00
2019-01-02T09:31:13.624Z,103266.00
2019-01-02T09:34:25.550Z,103276.00
2019-01-02T09:37:32.674Z,103270.00
2019-01-02T09:40:25.719Z,103281.00
2019-01-02T09:42:59.822Z,103287.00
2019-01-02T09:46:01.840Z,103294.00
2019-01-02T09:48:46.852Z,103298.00
2019-01-02T09:51:46.222Z,103302.00
2019-01-02T09:54:35.091Z,103304.00
2019-01-02T09:57:35.271Z,103295.00
2019-01-02T10:00:14.640Z,103292.00
2019-01-02T10:03:38.567Z,103295.00
2019-01-02T10:06:45.025Z,103304.00
2019-01-02T10:09:56.446Z,103307.00
2019-01-02T10:12:42.426Z,103304.00
2019-01-02T10:15:43.639Z,103303.00
2019-01-02T10:21:49.439Z,103295.00
2019-01-02T10:24:56.707Z,103297.00
2019-01-02T10:27:50.044Z,103296.00
2019-01-02T10:30:42.977Z,103291.00
2019-01-02T10:33:48.246Z,103310.00
2019-01-02T10:36:49.290Z,103289.00
2019-01-02T10:39:26.064Z,103297.00
2019-01-02T10:42:26.995Z,103289.00
2019-01-02T10:45:54.271Z,103279.00
2019-01-02T10:49:01.458Z,103291.00
2019-01-02T10:52:01.084Z,103282.00
2019-01-02T10:54:51.711Z,103290.00
2019-01-02T10:58:01.973Z,103283.00
2019-01-02T11:00:55.378Z,103282.00
2019-01-02T11:03:50.002Z,103287.00
2019-01-02T11:06:49.546Z,103295.00
2019-01-02T11:09:59.597Z,103298.00
2019-01-02T11:13:07.141Z,103290.00
2019-01-02T11:15:53.258Z,103293.00
2019-01-02T11:18:59.116Z,103291.00
2019-01-02T11:21:58.606Z,103292.00
2019-01-02T11:24:38.225Z,103299.00
2019-01-02T11:27:20.379Z,103291.00
2019-01-02T11:30:31.604Z,103290.00
2019-01-02T11:33:41.904Z,103297.00
2019-01-02T11:36:30.689Z,103295.00
2019-01-02T11:39:25.497Z,103297.00
2019-01-02T11:42:16.201Z,103305.00
2019-01-02T11:45:07.665Z,103289.00
2019-01-02T11:47:37.157Z,103288.00
2019-01-02T11:50:29.414Z,103291.00
2019-01-02T11:52:58.887Z,103290.00
2019-01-02T11:55:28.356Z,103286.00
2019-01-02T11:57:57.821Z,103284.00
2019-01-02T12:00:27.304Z,103284.00
2019-01-02T12:02:56.752Z,103283.00
2019-01-02T12:05:26.292Z,103276.00
2019-01-02T12:07:55.764Z,103279.00
2019-01-02T12:10:25.247Z,103278.00
2019-01-02T12:12:54.765Z,103281.00
2019-01-02T12:15:24.252Z,103279.00
2019-01-02T12:17:53.707Z,103290.00
2019-01-02T12:20:23.224Z,103270.00
2019-01-02T12:22:52.943Z,103283.00
2019-01-02T12:25:22.404Z,103279.00
2019-01-02T12:27:51.859Z,103276.00
2019-01-02T12:30:21.321Z,103269.00
2019-01-02T12:32:50.775Z,103278.00
2019-01-02T12:35:20.232Z,103280.00
2019-01-02T12:37:54.347Z,103274.00
2019-01-02T12:40:23.817Z,103277.00
2019-01-02T12:42:53.334Z,103284.00
2019-01-02T12:45:22.800Z,103283.00
2019-01-02T12:47:52.274Z,103284.00
2019-01-02T12:50:21.724Z,103289.00
2019-01-02T12:52:51.172Z,103288.00
2019-01-02T12:55:20.685Z,103296.00
2019-01-02T12:57:50.122Z,103287.00
2019-01-02T13:00:19.556Z,103290.00
2019-01-02T13:03:02.514Z,103297.00
2019-01-02T13:06:05.133Z,103299.00
2019-01-02T13:09:11.102Z,103305.00
2019-01-02T13:11:56.940Z,103300.00
2019-01-02T13:15:02.729Z,103302.00
2019-01-02T13:18:02.296Z,103300.00
2019-01-02T13:20:48.248Z,103300.00
2019-01-02T13:23:46.230Z,103310.00
2019-01-02T13:26:26.426Z,103303.00
2019-01-02T13:29:30.635Z,103312.00
2019-01-02T13:32:10.468Z,103314.00
2019-01-02T13:34:59.527Z,103315.00
2019-01-02T13:37:39.314Z,103314.00
2019-01-02T13:40:47.200Z,103320.00
2019-01-02T13:43:43.042Z,103329.00
2019-01-02T13:46:35.020Z,103335.00
2019-01-02T13:49:26.576Z,103330.00
2019-01-02T13:51:56.171Z,103332.00
2019-01-02T13:54:26.038Z,103335.00
2019-01-02T13:56:55.510Z,103331.00
2019-01-02T13:59:25.001Z,103339.00
2019-01-02T14:01:54.463Z,103347.00
2019-01-02T14:04:23.938Z,103337.00
2019-01-02T14:06:53.486Z,103346.00
2019-01-02T14:09:23.004Z,103347.00
2019-01-02T14:11:52.513Z,103340.00
2019-01-02T14:14:21.992Z,103342.00
2019-01-02T14:16:51.425Z,103338.00
2019-01-02T14:19:20.904Z,103348.00
2019-01-02T14:21:50.447Z,103348.00
2019-01-02T14:24:19.894Z,103347.00
2019-01-02T14:26:49.353Z,103352.00
2019-01-02T14:29:18.814Z,103349.00
2019-01-02T14:31:48.294Z,103360.00
2019-01-02T14:34:17.834Z,103359.00
2019-01-02T14:36:47.302Z,103352.00
2019-01-02T14:39:16.760Z,103355.00
2019-01-02T14:41:46.248Z,103346.00
2019-01-02T14:44:15.765Z,103358.00
2019-01-02T14:46:50.352Z,103360.00
2019-01-02T14:49:16.419Z,103360.00
2019-01-02T14:51:45.923Z,103357.00
2019-01-02T14:54:15.404Z,103361.00
2019-01-02T14:56:44.839Z,103361.00
2019-01-02T14:59:14.326Z,103366.00
2019-01-02T15:01:43.764Z,103362.00
2019-01-02T15:04:13.228Z,103372.00
2019-01-02T15:06:42.714Z,103372.00
2019-01-02T15:09:12.167Z,103371.00
2019-01-02T15:11:41.680Z,103376.00
2019-01-02T15:14:11.161Z,103376.00
2019-01-02T15:16:44.585Z,103371.00
2019-01-02T15:19:11.931Z,103376.00
2019-01-02T15:21:41.419Z,103382.00
2019-01-02T15:24:10.941Z,103390.00
2019-01-02T15:26:40.382Z,103388.00
2019-01-02T15:29:09.906Z,103386.00
2019-01-02T15:31:39.378Z,103396.00
2019-01-02T15:34:08.854Z,103399.00
2019-01-02T15:36:38.376Z,103409.00
2019-01-02T15:39:08.373Z,103402.00
2019-01-02T15:41:37.817Z,103403.00
2019-01-02T15:44:07.364Z,103408.00
2019-01-02T15:46:36.937Z,103402.00
2019-01-02T15:49:06.406Z,103402.00
2019-01-02T15:51:35.870Z,103403.00
2019-01-02T15:54:05.447Z,103403.00
2019-01-02T15:56:34.923Z,103401.00
2019-01-02T15:59:04.379Z,103418.00
2019-01-02T16:01:34.220Z,103414.00
2019-01-02T16:04:03.735Z,103412.00
2019-01-02T16:06:33.167Z,103415.00
2019-01-02T16:09:02.619Z,103430.00
2019-01-02T16:11:32.117Z,103421.00
2019-01-02T16:14:01.575Z,103430.00
2019-01-02T16:16:31.099Z,103433.00
2019-01-02T16:19:00.586Z,103432.00
2019-01-02T16:21:30.037Z,103429.00
2019-01-02T16:23:59.569Z,103436.00
2019-01-02T16:26:29.126Z,103441.00
2019-01-02T16:28:58.597Z,103444.00
2019-01-02T16:31:28.032Z,103448.00
2019-01-02T16:33:57.620Z,103450.00
2019-01-02T16:36:27.145Z,103447.00
2019-01-02T16:38:56.610Z,103452.00
2019-01-02T16:41:26.077Z,103458.00
2019-01-02T16:43:55.517Z,103458.00
2019-01-02T16:46:25.008Z,103465.00
2019-01-02T16:48:54.456Z,103465.00
2019-01-02T16:51:23.935Z,103470.00
2019-01-02T16:53:53.429Z,103465.00
2019-01-02T16:56:22.956Z,103464.00
2019-01-02T16:58:52.480Z,103478.00
2019-01-02T17:01:21.909Z,103478.00
2019-01-02T17:03:51.351Z,103477.00
2019-01-02T17:06:22.145Z,103479.00
2019-01-02T17:08:51.654Z,103466.00
2019-01-02T17:11:21.181Z,103471.00
2019-01-02T17:13:50.674Z,103474.00
2019-01-02T17:16:20.139Z,103482.00
2019-01-02T17:18:49.578Z,103485.00
2019-01-02T17:21:19.073Z,103478.00
2019-01-02T17:23:48.533Z,103482.00
2019-01-02T17:26:18.090Z,103474.00
2019-01-02T17:28:47.567Z,103486.00
2019-01-02T17:31:17.109Z,103473.00
2019-01-02T17:33:46.561Z,103485.00
2019-01-02T17:36:16.524Z,103480.00
2019-01-02T17:38:46.022Z,103483.00
2019-01-02T17:41:15.463Z,103491.00
2019-01-02T17:43:44.951Z,103488.00
2019-01-02T17:46:14.425Z,103494.00
2019-01-02T17:48:43.903Z,103487.00
2019-01-02T17:51:13.367Z,103499.00
2019-01-02T17:53:42.794Z,103495.00
2019-01-02T17:56:12.253Z,103497.00
2019-01-02T17:58:41.825Z,103493.00
2019-01-02T18:01:11.330Z,103495.00
2019-01-02T18:03:40.759Z,103500.00
2019-01-02T18:06:11.143Z,103490.00
2019-01-02T18:08:40.696Z,103495.00
2019-01-02T18:11:10.131Z,103501.00
2019-01-02T18:13:39.634Z,103500.00
2019-01-02T18:16:09.163Z,103508.00
2019-01-02T18:18:38.633Z,103503.00
2019-01-02T18:21:08.116Z,103512.00
2019-01-02T18:23:37.590Z,103510.00
2019-01-02T18:26:07.062Z,103515.00
2019-01-02T18:28:36.558Z,103518.00
2019-01-02T18:31:06.091Z,103520.00
2019-01-02T18:33:35.550Z,103521.00
2019-01-02T18:36:05.098Z,103525.00
2019-01-02T18:38:34.585Z,103527.00
2019-01-02T18:41:04.048Z,103530.00
2019-01-02T18:43:33.505Z,103537.00
2019-01-02T18:46:03.044Z,103538.00
2019-01-02T18:48:32.518Z,103540.00
2019-01-02T18:51:02.036Z,103538.00
2019-01-02T18:53:31.521Z,103533.00
2019-01-02T18:56:00.986Z,103537.00
2019-01-02T18:58:30.447Z,103536.00
2019-01-02T19:00:59.945Z,103546.00
2019-01-02T19:03:29.407Z,103541.00
2019-01-02T19:05:58.879Z,103541.00
2019-01-02T19:08:28.435Z,103546.00
2019-01-02T19:10:57.921Z,103542.00
2019-01-02T19:13:27.421Z,103539.00
2019-01-02T19:15:56.916Z,103547.00
2019-01-02T19:18:26.419Z,103550.00
2019-01-02T19:20:55.902Z,103547.00
2019-01-02T19:23:25.468Z,103548.00
2019-01-02T19:25:55.052Z,103554.00
2019-01-02T19:28:24.510Z,103548.00
2019-01-02T19:30:54.075Z,103553.00
2019-01-02T19:33:23.538Z,103551.00
2019-01-02T19:35:53.091Z,103549.00
2019-01-02T19:38:22.578Z,103559.00
2019-01-02T19:40:52.026Z,103549.00
2019-01-02T19:43:21.485Z,103550.00
2019-01-02T19:45:50.954Z,103552.00
2019-01-02T19:48:20.466Z,103545.00
2019-01-02T19:50:49.918Z,103553.00
2019-01-02T19:53:19.371Z,103549.00
2019-01-02T19:55:48.861Z,103556.00
2019-01-02T19:58:18.355Z,103558.00
2019-01-02T20:00:47.898Z,103560.00
2019-01-02T20:03:17.448Z,103551.00
2019-01-02T20:05:46.907Z,103561.00
2019-01-02T20:08:16.376Z,103564.00
2019-01-02T20:10:45.880Z,103562.00
2019-01-02T20:13:15.554Z,103562.00
2019-01-02T20:15:45.037Z,103561.00
2019-01-02T20:18:14.504Z,103561.00
2019-01-02T20:20:43.948Z,103562.00
2019-01-02T20:23:13.438Z,103565.00
2019-01-02T20:25:42.910Z,103562.00
2019-01-02T20:28:12.364Z,103561.00
2019-01-02T20:30:41.902Z,103558.00
2019-01-02T20:33:11.346Z,103557.00
2019-01-02T20:35:40.792Z,103551.00
2019-01-02T20:38:10.279Z,103542.00
2019-01-02T20:40:39.798Z,103546.00
2019-01-02T20:43:09.283Z,103554.00
2019-01-02T20:45:38.808Z,103550.00
2019-01-02T20:48:08.356Z,103554.00
2019-01-02T20:50:37.933Z,103558.00
2019-01-02T20:53:07.456Z,103545.00
2019-01-02T20:55:36.912Z,103547.00
2019-01-02T20:58:06.391Z,103547.00
2019-01-02T21:00:36.017Z,103543.00
2019-01-02T21:03:05.550Z,103534.00
2019-01-02T21:05:35.034Z,103528.00
2019-01-02T21:08:04.540Z,103525.00
2019-01-02T21:10:34.006Z,103531.00
2019-01-02T21:13:03.525Z,103527.00
2019-01-02T21:15:32.980Z,103529.00
2019-01-02T21:18:02.439Z,103526.00
2019-01-02T21:20:31.951Z,103530.00
2019-01-02T21:23:01.408Z,103530.00
2019-01-02T21:25:30.871Z,103525.00
2019-01-02T21:28:00.432Z,103527.00
2019-01-02T21:30:29.863Z,103527.00
2019-01-02T21:32:59.307Z,103532.00
2019-01-02T21:35:28.793Z,103532.00
2019-01-02T21:37:58.233Z,103531.00
2019-01-02T21:40:27.712Z,103524.00
2019-01-02T21:42:57.207Z,103527.00
2019-01-02T21:45:26.683Z,103521.00
2019-01-02T21:47:56.162Z,103522.00
2019-01-02T21:50:25.628Z,103518.00
2019-01-02T21:52:55.161Z,103522.00
2019-01-02T21:55:24.633Z,103520.00
2019-01-02T21:57:54.102Z,103515.00
2019-01-02T22:00:23.591Z,103511.00
2019-01-02T22:02:53.038Z,103516.00
2019-01-02T22:05:22.502Z,103520.00
2019-01-02T22:07:51.974Z,103514.00
2019-01-02T22:10:21.685Z,103521.00
2019-01-02T22:12:51.087Z,103515.00
2019-01-02T22:15:20.577Z,103513.00
2019-01-02T22:17:50.020Z,103513.00
2019-01-02T22:20:19.527Z,103515.00
2019-01-02T22:22:49.295Z,103513.00
2019-01-02T22:25:18.751Z,103510.00
2019-01-02T22:27:48.217Z,103506.00
2019-01-02T22:30:17.709Z,103516.00
2019-01-02T22:32:47.266Z,103519.00
2019-01-02T22:35:16.768Z,103523.00
2019-01-02T22:37:46.236Z,103525.00
2019-01-02T22:40:15.754Z,103521.00
2019-01-02T22:42:45.205Z,103518.00
2019-01-02T22:45:14.771Z,103523.00
2019-01-02T22:47:44.332Z,103528.00
2019-01-02T22:50:13.774Z,103532.00
2019-01-02T22:52:43.307Z,103533.00
2019-01-02T22:55:12.775Z,103532.00
2019-01-02T22:57:42.211Z,103522.00
2019-01-02T23:00:16.326Z,103519.00
2019-01-02T23:02:47.482Z,103518.00
2019-01-02T23:05:30.384Z,103513.00
2019-01-02T23:08:01.472Z,103517.00
2019-01-02T23:10:50.483Z,103516.00
2019-01-02T23:13:37.685Z,103514.00
2019-01-02T23:16:17.859Z,103525.00
2019-01-02T23:18:49.017Z,103527.00
2019-01-02T23:21:20.096Z,103520.00
2019-01-02T23:23:51.234Z,103519.00
2019-01-02T23:26:38.824Z,103523.00
2019-01-02T23:29:25.069Z,103516.00
2019-01-02T23:32:01.742Z,103527.00
2019-01-02T23:34:32.835Z,103521.00
2019-01-02T23:37:06.593Z,103517.00
2019-01-02T23:39:53.659Z,103525.00
2019-01-02T23:42:30.461Z,103527.00
2019-01-02T23:45:01.564Z,103528.00
2019-01-02T23:47:35.296Z,103521.00
2019-01-02T23:50:07.520Z,103532.00
2019-01-02T23:52:38.613Z,103532.00
2019-01-02T23:55:21.753Z,103535.00
2019-01-02T23:58:07.700Z,103527.00
